createdAt,value
2019-05-12T00:01:29.366Z,13.10
2019-05-12T00:04:00.732Z,13.10
2019-05-12T00:06:32.042Z,13.00
2019-05-12T00:09:04.552Z,13.00
2019-05-12T00:11:37.771Z,13.10
2019-05-12T00:14:08.871Z,13.00
2019-05-12T00:16:40.150Z,13.00
2019-05-12T00:19:11.576Z,13.00
2019-05-12T00:21:42.884Z,13.00
2019-05-12T00:24:14.385Z,13.10
2019-05-12T00:26:47.626Z,13.00
2019-05-12T00:29:18.736Z,13.00
2019-05-12T00:31:50.023Z,13.10
2019-05-12T00:34:21.441Z,13.00
2019-05-12T00:36:52.773Z,13.00
2019-05-12T00:39:24.253Z,13.10
2019-05-12T00:41:55.516Z,13.10
2019-05-12T00:44:28.432Z,13.10
2019-05-12T00:46:59.906Z,13.10
2019-05-12T00:49:31.245Z,13.10
2019-05-12T00:52:02.639Z,13.00
2019-05-12T00:54:34.034Z,13.00
2019-05-12T00:57:07.603Z,12.90
2019-05-12T00:59:38.355Z,12.70
2019-05-12T01:02:09.722Z,12.60
2019-05-12T01:04:41.195Z,12.60
2019-05-12T01:07:12.873Z,12.50
2019-05-12T01:09:44.304Z,12.40
2019-05-12T01:12:17.994Z,12.40
2019-05-12T01:14:48.653Z,12.30
2019-05-12T01:17:19.932Z,12.30
2019-05-12T01:19:51.294Z,12.20
2019-05-12T01:22:23.718Z,12.20
2019-05-12T01:24:57.713Z,12.20
2019-05-12T01:27:28.730Z,12.20
2019-05-12T01:30:00.331Z,12.30
2019-05-12T01:32:38.262Z,12.20
2019-05-12T01:35:11.171Z,12.10
2019-05-12T01:37:42.523Z,12.20
2019-05-12T01:40:14.819Z,12.20
2019-05-12T01:42:48.265Z,12.10
2019-05-12T01:45:19.845Z,12.00
2019-05-12T01:47:51.102Z,12.00
2019-05-12T01:50:22.602Z,11.80
2019-05-12T01:52:53.927Z,11.70
2019-05-12T01:55:27.859Z,11.80
2019-05-12T01:57:58.697Z,11.80
2019-05-12T02:00:30.141Z,11.80
2019-05-12T02:03:01.452Z,11.80
2019-05-12T02:05:32.891Z,11.80
2019-05-12T02:08:04.783Z,11.80
2019-05-12T02:10:38.755Z,11.80
2019-05-12T02:13:09.383Z,11.70
2019-05-12T02:15:40.779Z,11.60
2019-05-12T02:18:12.632Z,11.60
2019-05-12T02:20:44.020Z,11.60
2019-05-12T02:23:15.292Z,11.60
2019-05-12T02:25:48.338Z,11.50
2019-05-12T02:28:19.569Z,11.50
2019-05-12T02:30:50.979Z,11.50
2019-05-12T02:33:24.431Z,11.60
2019-05-12T02:35:56.032Z,11.60
2019-05-12T02:38:27.435Z,11.70
2019-05-12T02:40:59.945Z,11.70
2019-05-12T02:43:34.630Z,11.60
2019-05-12T02:46:05.061Z,11.60
2019-05-12T02:48:36.472Z,11.60
2019-05-12T02:51:07.851Z,11.70
2019-05-12T02:53:39.808Z,11.70
2019-05-12T02:56:15.192Z,11.70
2019-05-12T02:58:49.146Z,11.70
2019-05-12T03:01:24.329Z,11.70
2019-05-12T03:03:58.785Z,11.70
2019-05-12T03:06:31.883Z,11.70
2019-05-12T03:09:07.359Z,11.70
2019-05-12T03:11:38.843Z,11.70
2019-05-12T03:14:10.566Z,11.70
2019-05-12T03:16:45.173Z,11.70
2019-05-12T03:19:16.355Z,11.60
2019-05-12T03:21:48.261Z,11.50
2019-05-12T03:24:20.400Z,11.50
2019-05-12T03:26:55.059Z,11.40
2019-05-12T03:29:25.382Z,11.40
2019-05-12T03:31:57.577Z,11.40
2019-05-12T03:34:30.051Z,11.40
2019-05-12T03:37:07.050Z,11.40
2019-05-12T03:39:35.411Z,11.30
2019-05-12T03:42:07.164Z,11.40
2019-05-12T03:44:38.557Z,11.30
2019-05-12T03:47:09.908Z,11.30
2019-05-12T03:49:41.219Z,11.30
2019-05-12T03:52:15.368Z,11.30
2019-05-12T03:54:45.586Z,11.30
2019-05-12T03:57:17.025Z,11.30
2019-05-12T03:59:48.524Z,11.30
2019-05-12T04:02:20.345Z,11.30
2019-05-12T04:04:55.412Z,11.30
2019-05-12T04:07:25.676Z,11.40
2019-05-12T04:09:56.933Z,11.40
2019-05-12T04:12:28.421Z,11.50
2019-05-12T04:14:59.679Z,11.50
2019-05-12T04:17:35.029Z,11.60
2019-05-12T04:20:05.641Z,11.70
2019-05-12T04:22:37.077Z,11.70
2019-05-12T04:25:08.535Z,11.80
2019-05-12T04:27:39.839Z,11.90
2019-05-12T04:30:14.461Z,11.90
2019-05-12T04:32:45.657Z,12.00
2019-05-12T04:35:17.146Z,12.00
2019-05-12T04:37:48.665Z,12.10
2019-05-12T04:40:20.554Z,12.20
2019-05-12T04:42:54.812Z,12.20
2019-05-12T04:45:25.813Z,12.30
2019-05-12T04:47:57.322Z,12.40
2019-05-12T04:50:28.809Z,12.50
2019-05-12T04:53:00.259Z,12.60
2019-05-12T04:55:35.258Z,12.50
2019-05-12T04:58:05.183Z,12.60
2019-05-12T05:00:36.967Z,12.70
2019-05-12T05:03:08.419Z,12.70
2019-05-12T05:05:39.832Z,12.50
2019-05-12T05:08:14.040Z,12.60
2019-05-12T05:10:44.497Z,12.80
2019-05-12T05:13:15.982Z,12.90
2019-05-12T05:15:47.447Z,13.20
2019-05-12T05:18:18.788Z,13.20
2019-05-12T05:20:50.143Z,13.20
2019-05-12T05:23:21.493Z,13.50
2019-05-12T05:25:53.856Z,13.50
2019-05-12T05:28:25.402Z,13.60
2019-05-12T05:30:56.797Z,13.80
2019-05-12T05:33:28.203Z,14.00
2019-05-12T05:35:59.569Z,14.10
2019-05-12T05:38:30.997Z,14.20
2019-05-12T05:41:05.939Z,14.20
2019-05-12T05:43:35.408Z,14.20
2019-05-12T05:46:08.082Z,14.30
2019-05-12T05:48:39.640Z,14.30
2019-05-12T05:51:13.433Z,14.20
2019-05-12T05:53:44.371Z,14.30
2019-05-12T05:56:18.270Z,14.30
2019-05-12T05:58:51.970Z,14.30
2019-05-12T06:01:24.537Z,14.40
2019-05-12T06:03:58.287Z,14.50
2019-05-12T06:06:28.343Z,14.60
2019-05-12T06:09:00.466Z,14.60
2019-05-12T06:11:34.348Z,14.70
2019-05-12T06:14:11.269Z,14.60
2019-05-12T06:16:39.021Z,14.60
2019-05-12T06:19:10.349Z,14.60
2019-05-12T06:21:43.778Z,14.60
2019-05-12T06:24:19.843Z,14.60
2019-05-12T06:26:57.811Z,14.70
2019-05-12T06:29:24.383Z,14.70
2019-05-12T06:31:55.223Z,14.70
2019-05-12T06:34:26.531Z,14.80
2019-05-12T06:37:03.055Z,14.90
2019-05-12T06:39:34.215Z,15.00
2019-05-12T06:42:12.568Z,15.00
2019-05-12T06:44:37.679Z,15.10
2019-05-12T06:47:09.125Z,15.30
2019-05-12T06:49:40.536Z,15.40
2019-05-12T06:52:14.250Z,15.60
2019-05-12T06:54:51.136Z,15.60
2019-05-12T06:57:24.996Z,15.60
2019-05-12T06:59:53.125Z,15.60
2019-05-12T07:02:24.584Z,15.70
2019-05-12T07:04:59.341Z,15.80
2019-05-12T07:07:33.460Z,16.00
2019-05-12T07:10:11.764Z,16.10
2019-05-12T07:12:43.404Z,16.10
2019-05-12T07:15:09.841Z,16.30
2019-05-12T07:18:00.474Z,16.60
2019-05-12T07:20:35.472Z,16.80
2019-05-12T07:23:04.935Z,16.90
2019-05-12T07:25:36.817Z,17.00
2019-05-12T07:28:08.504Z,16.90
2019-05-12T07:30:39.754Z,17.00
2019-05-12T07:33:11.122Z,17.30
2019-05-12T07:35:44.538Z,17.40
2019-05-12T07:38:21.501Z,17.40
2019-05-12T07:40:51.121Z,17.60
2019-05-12T07:43:24.322Z,17.90
2019-05-12T07:46:02.560Z,18.00
2019-05-12T07:48:30.714Z,18.20
2019-05-12T07:51:04.020Z,18.20
2019-05-12T07:53:34.936Z,18.30
2019-05-12T07:56:06.376Z,18.40
2019-05-12T07:58:41.032Z,18.40
2019-05-12T08:01:10.713Z,18.40
2019-05-12T08:03:43.677Z,18.50
2019-05-12T08:06:15.152Z,18.80
2019-05-12T08:08:50.563Z,19.00
2019-05-12T08:11:19.556Z,19.20
2019-05-12T08:13:50.879Z,19.30
2019-05-12T08:16:25.604Z,19.30
2019-05-12T08:18:55.098Z,19.50
2019-05-12T08:21:26.383Z,19.80
2019-05-12T08:23:57.786Z,20.00
2019-05-12T08:26:29.627Z,20.20
2019-05-12T08:29:00.941Z,20.60
2019-05-12T08:31:40.107Z,20.70
2019-05-12T08:34:05.275Z,20.80
2019-05-12T08:36:38.068Z,21.00
2019-05-12T08:39:11.969Z,20.90
2019-05-12T08:41:44.421Z,20.70
2019-05-12T08:44:17.586Z,20.90
2019-05-12T08:46:52.033Z,21.20
2019-05-12T08:49:23.590Z,21.10
2019-05-12T08:52:00.042Z,21.10
2019-05-12T08:54:28.040Z,21.20
2019-05-12T08:57:01.182Z,20.90
2019-05-12T08:59:34.153Z,21.10
2019-05-12T09:02:07.416Z,21.10
2019-05-12T09:04:43.113Z,21.10
2019-05-12T09:07:13.847Z,21.40
2019-05-12T09:09:45.400Z,21.60
2019-05-12T09:12:16.802Z,21.60
2019-05-12T09:14:48.364Z,21.90
2019-05-12T09:17:19.745Z,21.80
2019-05-12T09:19:54.981Z,21.60
2019-05-12T09:25:09.531Z,21.40
2019-05-12T09:27:47.981Z,21.70
2019-05-12T09:30:14.658Z,21.50
2019-05-12T09:32:50.383Z,21.80
2019-05-12T09:35:19.211Z,21.90
2019-05-12T09:37:50.690Z,22.20
2019-05-12T09:40:24.388Z,22.30
2019-05-12T09:42:55.212Z,21.90
2019-05-12T09:45:26.791Z,22.00
2019-05-12T09:47:58.863Z,21.90
2019-05-12T09:50:31.172Z,21.90
2019-05-12T09:53:09.424Z,22.70
2019-05-12T09:55:35.573Z,23.20
2019-05-12T09:58:06.954Z,23.20
2019-05-12T10:00:38.261Z,23.50
2019-05-12T10:03:09.584Z,23.50
2019-05-12T10:05:41.461Z,23.60
2019-05-12T10:08:13.874Z,23.40
2019-05-12T10:10:47.193Z,22.80
2019-05-12T10:13:20.229Z,22.60
2019-05-12T10:15:53.584Z,22.80
2019-05-12T10:18:24.793Z,22.80
2019-05-12T10:20:56.243Z,23.30
2019-05-12T10:23:27.663Z,23.50
2019-05-12T10:26:01.569Z,23.30
2019-05-12T10:28:32.122Z,23.80
2019-05-12T10:31:04.240Z,23.50
2019-05-12T10:33:35.715Z,23.40
2019-05-12T10:36:08.490Z,23.50
2019-05-12T10:38:40.213Z,23.50
2019-05-12T10:41:13.495Z,23.20
2019-05-12T10:43:48.418Z,23.40
2019-05-12T10:46:18.517Z,23.20
2019-05-12T10:48:50.780Z,23.00
2019-05-12T10:51:23.866Z,23.10
2019-05-12T10:54:01.820Z,23.80
2019-05-12T10:56:28.020Z,24.30
2019-05-12T10:58:59.360Z,24.20
2019-05-12T11:01:31.091Z,24.50
2019-05-12T11:04:03.981Z,24.20
2019-05-12T11:06:39.635Z,24.30
2019-05-12T11:09:09.784Z,24.30
2019-05-12T11:11:43.616Z,24.00
2019-05-12T11:14:14.309Z,23.90
2019-05-12T11:16:45.797Z,23.70
2019-05-12T11:19:17.248Z,24.00
2019-05-12T11:21:48.587Z,23.70
2019-05-12T11:24:19.943Z,23.80
2019-05-12T11:26:53.474Z,23.70
2019-05-12T11:29:24.234Z,23.30
2019-05-12T11:31:55.734Z,23.40
2019-05-12T11:34:27.068Z,23.10
2019-05-12T11:36:59.382Z,23.20
2019-05-12T11:39:35.698Z,23.50
2019-05-12T11:42:04.381Z,23.80
2019-05-12T11:44:35.845Z,24.20
2019-05-12T11:47:07.333Z,24.20
2019-05-12T11:49:38.868Z,24.20
2019-05-12T11:52:15.948Z,24.30
2019-05-12T11:54:47.120Z,24.40
2019-05-12T11:57:20.175Z,24.40
2019-05-12T12:00:00.812Z,24.50
2019-05-12T12:02:26.255Z,24.20
2019-05-12T12:04:55.347Z,24.80
2019-05-12T12:07:26.625Z,25.10
2019-05-12T12:09:59.545Z,25.50
2019-05-12T12:12:31.065Z,25.50
2019-05-12T12:15:04.701Z,25.20
2019-05-12T12:17:36.392Z,25.10
2019-05-12T12:20:08.102Z,24.60
2019-05-12T12:22:44.489Z,24.00
2019-05-12T12:25:25.980Z,23.90
2019-05-12T12:27:57.377Z,24.00
2019-05-12T12:30:28.917Z,24.20
2019-05-12T12:33:00.527Z,24.70
2019-05-12T12:35:34.388Z,24.80
2019-05-12T12:38:05.092Z,25.10
2019-05-12T12:40:36.423Z,25.10
2019-05-12T12:43:07.863Z,25.00
2019-05-12T12:45:48.454Z,25.10
2019-05-12T12:48:27.709Z,24.80
2019-05-12T12:50:53.518Z,25.00
2019-05-12T12:53:27.534Z,25.00
2019-05-12T12:55:59.280Z,24.90
2019-05-12T12:58:31.431Z,24.70
2019-05-12T13:01:04.752Z,24.80
2019-05-12T13:03:36.120Z,25.00
2019-05-12T13:06:07.480Z,24.50
2019-05-12T13:08:38.810Z,24.20
2019-05-12T13:11:10.273Z,24.10
2019-05-12T13:13:41.574Z,23.80
2019-05-12T13:16:13.334Z,24.10
2019-05-12T13:18:44.807Z,24.20
2019-05-12T13:21:16.301Z,24.20
2019-05-12T13:23:51.040Z,24.20
2019-05-12T13:26:23.713Z,24.20
2019-05-12T13:28:55.176Z,24.20
2019-05-12T13:31:26.750Z,24.30
2019-05-12T13:33:58.130Z,24.30
2019-05-12T13:36:34.673Z,24.70
2019-05-12T13:39:02.739Z,24.80
2019-05-12T13:41:34.208Z,24.60
2019-05-12T13:44:05.725Z,24.50
2019-05-12T13:46:37.259Z,24.70
2019-05-12T13:49:08.595Z,24.80
2019-05-12T13:51:43.191Z,24.40
2019-05-12T13:54:14.400Z,24.60
2019-05-12T13:56:46.175Z,24.90
2019-05-12T13:59:21.034Z,24.70
2019-05-12T14:01:50.571Z,24.40
2019-05-12T14:04:22.305Z,24.30
2019-05-12T14:06:54.899Z,24.70
2019-05-12T14:09:26.185Z,24.60
2019-05-12T14:11:57.539Z,24.60
2019-05-12T14:14:28.950Z,24.50
2019-05-12T14:17:00.375Z,24.20
2019-05-12T14:19:35.707Z,23.60
2019-05-12T14:22:06.299Z,23.60
2019-05-12T14:24:41.817Z,23.50
2019-05-12T14:27:10.920Z,23.50
2019-05-12T14:29:44.015Z,23.40
2019-05-12T14:32:17.458Z,23.20
2019-05-12T14:34:51.112Z,23.00
2019-05-12T14:37:21.642Z,22.90
2019-05-12T14:39:53.638Z,22.90
2019-05-12T14:42:33.418Z,22.90
2019-05-12T14:44:58.159Z,22.60
2019-05-12T14:47:30.248Z,21.70
2019-05-12T14:50:04.073Z,20.90
2019-05-12T14:52:35.707Z,20.40
2019-05-12T14:55:07.756Z,19.90
2019-05-12T14:57:39.527Z,19.20
2019-05-12T15:00:17.712Z,18.70
2019-05-12T15:02:45.616Z,18.40
2019-05-12T15:05:17.159Z,17.90
2019-05-12T15:07:54.365Z,17.60
2019-05-12T15:10:23.392Z,17.20
2019-05-12T15:12:54.450Z,17.10
2019-05-12T15:15:25.831Z,16.90
2019-05-12T15:18:03.566Z,16.80
2019-05-12T15:20:30.089Z,16.70
2019-05-12T15:23:03.510Z,16.70
2019-05-12T15:25:35.485Z,16.60
2019-05-12T15:28:07.650Z,16.50
2019-05-12T15:30:39.144Z,16.50
2019-05-12T15:33:10.535Z,16.50
2019-05-12T15:35:43.936Z,16.50
2019-05-12T15:38:16.799Z,16.60
2019-05-12T15:40:47.811Z,16.60
2019-05-12T15:43:19.245Z,16.60
2019-05-12T15:45:57.385Z,16.70
2019-05-12T15:48:26.030Z,16.70
2019-05-12T15:50:59.432Z,16.70
2019-05-12T15:53:30.206Z,16.70
2019-05-12T15:56:05.888Z,16.70
2019-05-12T15:58:34.716Z,16.70
2019-05-12T16:01:06.010Z,16.70
2019-05-12T16:03:37.433Z,16.70
2019-05-12T16:06:11.856Z,16.50
2019-05-12T16:08:41.718Z,16.60
2019-05-12T16:11:13.956Z,16.50
2019-05-12T16:13:53.793Z,16.50
2019-05-12T16:16:18.648Z,16.40
2019-05-12T16:18:50.765Z,16.40
2019-05-12T16:21:23.307Z,16.50
2019-05-12T16:23:56.740Z,16.50
2019-05-12T16:26:27.724Z,16.40
2019-05-12T16:29:03.146Z,16.10
2019-05-12T16:31:33.859Z,16.00
2019-05-12T16:34:06.091Z,15.90
2019-05-12T16:36:41.228Z,15.80
2019-05-12T16:39:10.847Z,15.80
2019-05-12T16:41:43.894Z,15.70
2019-05-12T16:44:21.414Z,15.80
2019-05-12T16:46:48.263Z,15.80
2019-05-12T16:49:24.970Z,15.80
2019-05-12T16:51:54.214Z,15.70
2019-05-12T16:54:25.924Z,15.70
2019-05-12T16:57:00.243Z,15.40
2019-05-12T16:59:30.315Z,15.20
2019-05-12T17:02:08.060Z,15.10
2019-05-12T17:04:34.586Z,14.90
2019-05-12T17:07:09.704Z,14.90
2019-05-12T17:09:38.815Z,14.80
2019-05-12T17:12:10.225Z,14.70
2019-05-12T17:14:47.979Z,14.70
2019-05-12T17:17:14.667Z,14.60
2019-05-12T17:19:46.040Z,14.50
2019-05-12T17:22:17.795Z,14.50
2019-05-12T17:24:49.420Z,14.60
2019-05-12T17:27:25.151Z,14.60
2019-05-12T17:29:54.145Z,14.60
2019-05-12T17:32:25.548Z,14.50
2019-05-12T17:34:57.105Z,14.50
2019-05-12T17:37:31.471Z,14.40
2019-05-12T17:40:03.589Z,14.40
2019-05-12T17:42:34.528Z,14.20
2019-05-12T17:45:09.276Z,14.20
2019-05-12T17:47:39.456Z,14.20
2019-05-12T17:50:13.694Z,14.10
2019-05-12T17:52:45.304Z,13.80
2019-05-12T17:55:16.944Z,13.90
2019-05-12T17:57:50.406Z,13.90
2019-05-12T18:00:23.582Z,13.90
2019-05-12T18:03:05.941Z,13.90
2019-05-12T18:05:28.865Z,13.90
2019-05-12T18:08:00.645Z,13.70
2019-05-12T18:10:32.636Z,13.70
2019-05-12T18:13:05.626Z,13.50
2019-05-12T18:15:38.048Z,13.60
2019-05-12T18:18:09.841Z,13.50
2019-05-12T18:20:43.975Z,13.60
2019-05-12T18:23:14.105Z,13.40
2019-05-12T18:25:45.458Z,13.40
2019-05-12T18:28:21.683Z,13.40
2019-05-12T18:30:50.016Z,13.40
2019-05-12T18:33:32.609Z,13.30
2019-05-12T18:35:54.487Z,13.10
2019-05-12T18:38:26.664Z,13.00
2019-05-12T18:40:58.328Z,12.80
2019-05-12T18:43:29.803Z,12.70
2019-05-12T18:46:06.271Z,12.60
2019-05-12T18:48:34.447Z,12.60
2019-05-12T18:51:11.825Z,12.60
2019-05-12T18:53:39.002Z,12.30
2019-05-12T18:56:15.987Z,12.40
2019-05-12T18:58:44.482Z,12.40
2019-05-12T19:01:16.121Z,12.40
2019-05-12T19:03:50.984Z,12.40
2019-05-12T19:06:20.639Z,12.50
2019-05-12T19:08:53.881Z,12.40
2019-05-12T19:11:31.845Z,12.30
2019-05-12T19:13:57.992Z,12.30
2019-05-12T19:16:29.327Z,12.20
2019-05-12T19:19:00.727Z,12.20
2019-05-12T19:21:32.487Z,12.20
2019-05-12T19:24:08.686Z,12.10
2019-05-12T19:26:38.443Z,12.10
2019-05-12T19:29:11.082Z,12.10
2019-05-12T19:31:51.475Z,12.00
2019-05-12T19:34:21.951Z,11.90
2019-05-12T19:36:49.615Z,11.80
2019-05-12T19:39:25.177Z,11.60
2019-05-12T19:41:54.441Z,11.40
2019-05-12T19:44:30.488Z,11.10
2019-05-12T19:46:58.997Z,10.90
2019-05-12T19:49:45.887Z,10.90
2019-05-12T19:52:03.636Z,10.90
2019-05-12T19:54:36.912Z,10.80
2019-05-12T19:57:13.057Z,10.70
2019-05-12T19:59:50.433Z,10.60
2019-05-12T20:02:20.025Z,10.60
2019-05-12T20:04:53.323Z,10.60
2019-05-12T20:07:24.674Z,10.60
2019-05-12T20:10:00.371Z,10.50
2019-05-12T20:12:29.080Z,10.50
2019-05-12T20:15:00.469Z,10.60
2019-05-12T20:17:33.958Z,10.60
2019-05-12T20:20:05.069Z,10.60
2019-05-12T20:22:36.513Z,10.60
2019-05-12T20:25:08.098Z,10.50
2019-05-12T20:27:39.486Z,10.40
2019-05-12T20:30:16.823Z,10.40
2019-05-12T20:32:44.351Z,10.30
2019-05-12T20:35:15.800Z,10.30
2019-05-12T20:37:53.000Z,10.10
2019-05-12T20:40:23.743Z,10.00
2019-05-12T20:43:07.988Z,10.00
2019-05-12T20:45:32.988Z,10.00
2019-05-12T20:48:04.052Z,10.10
2019-05-12T20:50:38.633Z,10.00
2019-05-12T20:53:09.198Z,9.90
2019-05-12T20:55:41.472Z,10.00
2019-05-12T20:58:13.691Z,10.00
2019-05-12T21:00:49.986Z,10.00
2019-05-12T21:03:18.973Z,9.90
2019-05-12T21:05:50.719Z,9.80
2019-05-12T21:08:23.668Z,9.70
2019-05-12T21:10:55.337Z,9.80
2019-05-12T21:13:31.629Z,9.80
2019-05-12T21:15:59.969Z,9.80
2019-05-12T21:18:46.247Z,9.80
2019-05-12T21:21:04.889Z,9.70
2019-05-12T21:23:36.369Z,9.70
2019-05-12T21:26:07.753Z,9.70
2019-05-12T21:28:46.118Z,9.60
2019-05-12T21:31:14.011Z,9.60
2019-05-12T21:33:44.961Z,9.60
2019-05-12T21:36:24.348Z,9.50
2019-05-12T21:38:49.346Z,9.60
2019-05-12T21:41:22.500Z,9.50
2019-05-12T21:43:54.408Z,9.40
2019-05-12T21:46:26.264Z,9.50
2019-05-12T21:49:09.248Z,9.50
2019-05-12T21:51:30.519Z,9.60
2019-05-12T21:54:03.999Z,9.50
2019-05-12T21:56:43.538Z,9.40
2019-05-12T21:59:08.310Z,9.40
2019-05-12T22:01:43.269Z,9.40
2019-05-12T22:04:14.267Z,9.40
2019-05-12T22:06:45.780Z,9.30
2019-05-12T22:09:17.656Z,9.20
2019-05-12T22:11:50.877Z,9.20
2019-05-12T22:14:23.953Z,9.10
2019-05-12T22:16:56.592Z,9.10
2019-05-12T22:19:30.886Z,9.00
2019-05-12T22:22:01.210Z,9.00
2019-05-12T22:24:37.391Z,8.90
2019-05-12T22:27:07.738Z,8.80
2019-05-12T22:29:39.107Z,8.90
2019-05-12T22:32:10.397Z,8.80
2019-05-12T22:34:44.485Z,8.80
2019-05-12T22:37:14.700Z,8.80
2019-05-12T22:39:46.677Z,8.80
2019-05-12T22:42:21.593Z,8.80
2019-05-12T22:44:55.337Z,8.80
2019-05-12T22:47:24.237Z,8.80
2019-05-12T22:49:57.045Z,8.80
2019-05-12T22:52:28.661Z,8.90
2019-05-12T22:55:00.010Z,8.90
2019-05-12T22:57:38.254Z,8.90
2019-05-12T23:00:06.248Z,8.90
2019-05-12T23:02:39.249Z,8.90
2019-05-12T23:05:18.911Z,8.90
2019-05-12T23:07:44.063Z,8.90
2019-05-12T23:10:15.887Z,8.90
2019-05-12T23:12:50.328Z,9.00
2019-05-12T23:15:20.505Z,9.10
2019-05-12T23:17:53.206Z,9.00
2019-05-12T23:20:25.393Z,9.00
2019-05-12T23:22:57.916Z,9.00
2019-05-12T23:25:29.213Z,8.80
2019-05-12T23:28:05.873Z,8.90
2019-05-12T23:30:33.485Z,8.90
2019-05-12T23:33:04.767Z,8.90
2019-05-12T23:35:39.409Z,9.00
2019-05-12T23:38:10.461Z,9.00
2019-05-12T23:40:43.344Z,9.00
2019-05-12T23:43:16.642Z,9.00
2019-05-12T23:45:48.040Z,9.00
2019-05-12T23:48:19.838Z,9.00
2019-05-12T23:50:51.184Z,9.10
2019-05-12T23:53:24.394Z,9.00
2019-05-12T23:55:55.991Z,9.00
2019-05-12T23:58:27.838Z,9.00
